sensor_id;sensor_type;location;lat;lon;timestamp;P1;durP1;ratioP1;P2;durP2;ratioP2
66739;SDS011;53653;52.188;8.602;2023-06-14T00:00:14;9.43;;;3.10;;
66739;SDS011;53653;52.188;8.602;2023-06-14T00:02:40;6.93;;;2.80;;
66739;SDS011;53653;52.188;8.602;2023-06-14T00:05:06;7.68;;;2.83;;
66739;SDS011;53653;52.188;8.602;2023-06-14T00:07:39;7.60;;;2.92;;
66739;SDS011;53653;52.188;8.602;2023-06-14T00:10:09;6.25;;;2.92;;
66739;SDS011;53653;52.188;8.602;2023-06-14T00:12:38;10.97;;;3.17;;
66739;SDS011;53653;52.188;8.602;2023-06-14T00:15:04;8.73;;;2.83;;
66739;SDS011;53653;52.188;8.602;2023-06-14T00:17:30;6.97;;;2.83;;
66739;SDS011;53653;52.188;8.602;2023-06-14T00:19:59;8.02;;;2.70;;
66739;SDS011;53653;52.188;8.602;2023-06-14T00:22:25;7.83;;;2.87;;
66739;SDS011;53653;52.188;8.602;2023-06-14T00:24:54;6.80;;;2.60;;
66739;SDS011;53653;52.188;8.602;2023-06-14T00:27:19;9.27;;;3.38;;
66739;SDS011;53653;52.188;8.602;2023-06-14T00:29:45;7.60;;;3.37;;
66739;SDS011;53653;52.188;8.602;2023-06-14T00:32:10;10.90;;;2.93;;
66739;SDS011;53653;52.188;8.602;2023-06-14T00:34:36;7.47;;;2.92;;
66739;SDS011;53653;52.188;8.602;2023-06-14T00:37:01;8.10;;;3.27;;
66739;SDS011;53653;52.188;8.602;2023-06-14T00:39:27;7.37;;;2.77;;
66739;SDS011;53653;52.188;8.602;2023-06-14T00:41:52;10.15;;;3.00;;
66739;SDS011;53653;52.188;8.602;2023-06-14T00:44:19;10.57;;;3.33;;
66739;SDS011;53653;52.188;8.602;2023-06-14T00:46:45;11.93;;;2.90;;
66739;SDS011;53653;52.188;8.602;2023-06-14T00:49:11;8.30;;;2.90;;
66739;SDS011;53653;52.188;8.602;2023-06-14T00:51:40;8.13;;;3.10;;
66739;SDS011;53653;52.188;8.602;2023-06-14T00:54:06;7.35;;;3.10;;
66739;SDS011;53653;52.188;8.602;2023-06-14T00:56:31;7.40;;;3.27;;
66739;SDS011;53653;52.188;8.602;2023-06-14T00:58:57;7.50;;;3.00;;
66739;SDS011;53653;52.188;8.602;2023-06-14T01:01:23;7.03;;;3.03;;
66739;SDS011;53653;52.188;8.602;2023-06-14T01:03:49;8.05;;;3.30;;
66739;SDS011;53653;52.188;8.602;2023-06-14T01:12:02;6.75;;;3.30;;
66739;SDS011;53653;52.188;8.602;2023-06-14T01:14:42;7.78;;;3.05;;
66739;SDS011;53653;52.188;8.602;2023-06-14T01:17:08;6.97;;;3.20;;
66739;SDS011;53653;52.188;8.602;2023-06-14T01:19:41;10.20;;;3.55;;
66739;SDS011;53653;52.188;8.602;2023-06-14T01:22:07;7.40;;;2.97;;
66739;SDS011;53653;52.188;8.602;2023-06-14T01:24:33;7.37;;;3.40;;
66739;SDS011;53653;52.188;8.602;2023-06-14T01:26:59;7.68;;;3.22;;
66739;SDS011;53653;52.188;8.602;2023-06-14T01:29:27;9.75;;;3.20;;
66739;SDS011;53653;52.188;8.602;2023-06-14T01:32:01;8.70;;;3.15;;
66739;SDS011;53653;52.188;8.602;2023-06-14T01:34:29;8.15;;;3.30;;
66739;SDS011;53653;52.188;8.602;2023-06-14T01:36:55;9.30;;;3.77;;
66739;SDS011;53653;52.188;8.602;2023-06-14T01:39:22;8.13;;;3.50;;
66739;SDS011;53653;52.188;8.602;2023-06-14T01:41:48;7.82;;;3.17;;
66739;SDS011;53653;52.188;8.602;2023-06-14T01:44:15;6.57;;;3.20;;
66739;SDS011;53653;52.188;8.602;2023-06-14T01:46:42;7.60;;;3.58;;
66739;SDS011;53653;52.188;8.602;2023-06-14T01:49:08;8.67;;;3.20;;
66739;SDS011;53653;52.188;8.602;2023-06-14T01:51:34;7.80;;;3.33;;
66739;SDS011;53653;52.188;8.602;2023-06-14T01:54:00;7.45;;;3.63;;
66739;SDS011;53653;52.188;8.602;2023-06-14T01:56:26;7.50;;;3.50;;
66739;SDS011;53653;52.188;8.602;2023-06-14T01:58:52;9.40;;;3.72;;
66739;SDS011;53653;52.188;8.602;2023-06-14T02:01:19;7.97;;;3.30;;
66739;SDS011;53653;52.188;8.602;2023-06-14T02:03:46;8.57;;;3.37;;
66739;SDS011;53653;52.188;8.602;2023-06-14T02:06:15;8.07;;;3.40;;
66739;SDS011;53653;52.188;8.602;2023-06-14T02:08:41;8.23;;;3.38;;
66739;SDS011;53653;52.188;8.602;2023-06-14T02:11:07;7.85;;;3.40;;
66739;SDS011;53653;52.188;8.602;2023-06-14T02:13:34;8.50;;;3.17;;
66739;SDS011;53653;52.188;8.602;2023-06-14T02:16:00;8.33;;;3.77;;
66739;SDS011;53653;52.188;8.602;2023-06-14T02:18:27;7.95;;;3.40;;
66739;SDS011;53653;52.188;8.602;2023-06-14T02:20:53;9.60;;;3.92;;
66739;SDS011;53653;52.188;8.602;2023-06-14T02:23:19;8.30;;;3.33;;
66739;SDS011;53653;52.188;8.602;2023-06-14T02:25:45;8.23;;;3.70;;
66739;SDS011;53653;52.188;8.602;2023-06-14T02:28:11;9.00;;;3.60;;
66739;SDS011;53653;52.188;8.602;2023-06-14T02:30:38;8.13;;;3.20;;
66739;SDS011;53653;52.188;8.602;2023-06-14T02:33:04;7.60;;;3.40;;
66739;SDS011;53653;52.188;8.602;2023-06-14T02:35:31;8.70;;;3.53;;
66739;SDS011;53653;52.188;8.602;2023-06-14T02:37:57;7.68;;;3.33;;
66739;SDS011;53653;52.188;8.602;2023-06-14T02:40:22;9.10;;;3.43;;
66739;SDS011;53653;52.188;8.602;2023-06-14T02:42:48;7.57;;;3.72;;
66739;SDS011;53653;52.188;8.602;2023-06-14T02:45:14;10.97;;;3.77;;
66739;SDS011;53653;52.188;8.602;2023-06-14T02:47:40;7.10;;;2.83;;
66739;SDS011;53653;52.188;8.602;2023-06-14T02:50:06;9.00;;;3.67;;
66739;SDS011;53653;52.188;8.602;2023-06-14T02:52:33;8.18;;;3.63;;
66739;SDS011;53653;52.188;8.602;2023-06-14T02:54:59;8.25;;;3.17;;
66739;SDS011;53653;52.188;8.602;2023-06-14T02:57:25;10.48;;;3.33;;
66739;SDS011;53653;52.188;8.602;2023-06-14T02:59:51;12.70;;;3.43;;
66739;SDS011;53653;52.188;8.602;2023-06-14T03:02:18;9.15;;;3.45;;
66739;SDS011;53653;52.188;8.602;2023-06-14T03:04:44;8.18;;;3.40;;
66739;SDS011;53653;52.188;8.602;2023-06-14T03:07:14;8.63;;;3.60;;
66739;SDS011;53653;52.188;8.602;2023-06-14T03:09:46;9.93;;;3.50;;
66739;SDS011;53653;52.188;8.602;2023-06-14T03:12:12;8.87;;;3.23;;
66739;SDS011;53653;52.188;8.602;2023-06-14T03:14:38;7.75;;;3.55;;
66739;SDS011;53653;52.188;8.602;2023-06-14T03:17:05;7.20;;;3.58;;
66739;SDS011;53653;52.188;8.602;2023-06-14T03:19:35;7.85;;;3.60;;
66739;SDS011;53653;52.188;8.602;2023-06-14T03:22:02;7.60;;;3.55;;
66739;SDS011;53653;52.188;8.602;2023-06-14T03:24:30;8.37;;;3.30;;
66739;SDS011;53653;52.188;8.602;2023-06-14T03:26:58;11.18;;;3.72;;
66739;SDS011;53653;52.188;8.602;2023-06-14T03:29:25;7.47;;;3.47;;
66739;SDS011;53653;52.188;8.602;2023-06-14T03:31:58;9.65;;;3.95;;
66739;SDS011;53653;52.188;8.602;2023-06-14T03:34:32;10.10;;;3.80;;
66739;SDS011;53653;52.188;8.602;2023-06-14T03:36:58;7.88;;;3.58;;
66739;SDS011;53653;52.188;8.602;2023-06-14T03:39:24;8.18;;;3.60;;
66739;SDS011;53653;52.188;8.602;2023-06-14T03:41:49;10.80;;;4.23;;
66739;SDS011;53653;52.188;8.602;2023-06-14T03:44:16;11.60;;;3.65;;
66739;SDS011;53653;52.188;8.602;2023-06-14T03:46:47;8.05;;;3.40;;
66739;SDS011;53653;52.188;8.602;2023-06-14T03:49:13;9.13;;;3.53;;
66739;SDS011;53653;52.188;8.602;2023-06-14T03:51:39;7.30;;;3.65;;
66739;SDS011;53653;52.188;8.602;2023-06-14T03:54:05;10.05;;;3.95;;
66739;SDS011;53653;52.188;8.602;2023-06-14T03:56:32;7.75;;;3.67;;
66739;SDS011;53653;52.188;8.602;2023-06-14T03:58:58;8.67;;;3.50;;
66739;SDS011;53653;52.188;8.602;2023-06-14T04:01:25;6.93;;;3.50;;
66739;SDS011;53653;52.188;8.602;2023-06-14T04:03:57;11.27;;;4.03;;
66739;SDS011;53653;52.188;8.602;2023-06-14T04:06:24;8.30;;;3.65;;
66739;SDS011;53653;52.188;8.602;2023-06-14T04:08:57;8.70;;;3.70;;
66739;SDS011;53653;52.188;8.602;2023-06-14T04:11:27;8.30;;;3.77;;
66739;SDS011;53653;52.188;8.602;2023-06-14T04:13:53;9.95;;;3.92;;
66739;SDS011;53653;52.188;8.602;2023-06-14T04:16:19;12.88;;;4.30;;
66739;SDS011;53653;52.188;8.602;2023-06-14T04:18:44;9.87;;;3.80;;
66739;SDS011;53653;52.188;8.602;2023-06-14T04:21:11;8.70;;;4.07;;
66739;SDS011;53653;52.188;8.602;2023-06-14T04:23:37;8.60;;;4.13;;
66739;SDS011;53653;52.188;8.602;2023-06-14T04:26:03;8.25;;;3.80;;
66739;SDS011;53653;52.188;8.602;2023-06-14T04:28:29;11.10;;;3.80;;
66739;SDS011;53653;52.188;8.602;2023-06-14T04:30:57;10.68;;;4.15;;
66739;SDS011;53653;52.188;8.602;2023-06-14T04:33:28;10.43;;;3.85;;
66739;SDS011;53653;52.188;8.602;2023-06-14T04:35:53;10.13;;;3.88;;
66739;SDS011;53653;52.188;8.602;2023-06-14T04:38:21;11.30;;;3.90;;
66739;SDS011;53653;52.188;8.602;2023-06-14T04:40:51;9.00;;;3.88;;
66739;SDS011;53653;52.188;8.602;2023-06-14T04:43:19;8.02;;;3.72;;
66739;SDS011;53653;52.188;8.602;2023-06-14T04:45:50;11.05;;;4.50;;
66739;SDS011;53653;52.188;8.602;2023-06-14T04:48:17;10.15;;;3.63;;
66739;SDS011;53653;52.188;8.602;2023-06-14T04:50:45;12.27;;;4.10;;
66739;SDS011;53653;52.188;8.602;2023-06-14T04:53:10;8.20;;;3.63;;
66739;SDS011;53653;52.188;8.602;2023-06-14T04:55:36;8.55;;;3.90;;
66739;SDS011;53653;52.188;8.602;2023-06-14T04:58:03;7.13;;;3.30;;
66739;SDS011;53653;52.188;8.602;2023-06-14T05:00:30;9.38;;;3.95;;
66739;SDS011;53653;52.188;8.602;2023-06-14T05:02:55;11.05;;;3.80;;
66739;SDS011;53653;52.188;8.602;2023-06-14T05:05:22;10.48;;;3.67;;
66739;SDS011;53653;52.188;8.602;2023-06-14T05:07:48;7.90;;;3.60;;
66739;SDS011;53653;52.188;8.602;2023-06-14T05:10:14;8.38;;;3.92;;
66739;SDS011;53653;52.188;8.602;2023-06-14T05:12:40;10.67;;;3.57;;
66739;SDS011;53653;52.188;8.602;2023-06-14T05:15:08;8.35;;;3.53;;
66739;SDS011;53653;52.188;8.602;2023-06-14T05:17:35;8.02;;;3.80;;
66739;SDS011;53653;52.188;8.602;2023-06-14T05:20:01;6.97;;;3.25;;
66739;SDS011;53653;52.188;8.602;2023-06-14T05:22:27;10.15;;;3.65;;
66739;SDS011;53653;52.188;8.602;2023-06-14T05:24:52;7.77;;;3.70;;
66739;SDS011;53653;52.188;8.602;2023-06-14T05:27:18;9.40;;;3.73;;
66739;SDS011;53653;52.188;8.602;2023-06-14T05:29:43;13.10;;;3.80;;
66739;SDS011;53653;52.188;8.602;2023-06-14T05:32:09;8.60;;;3.70;;
66739;SDS011;53653;52.188;8.602;2023-06-14T05:34:34;8.10;;;3.53;;
66739;SDS011;53653;52.188;8.602;2023-06-14T05:37:00;7.13;;;3.17;;
66739;SDS011;53653;52.188;8.602;2023-06-14T05:39:25;7.10;;;3.30;;
66739;SDS011;53653;52.188;8.602;2023-06-14T05:41:51;6.30;;;2.47;;
66739;SDS011;53653;52.188;8.602;2023-06-14T05:44:16;9.30;;;3.10;;
66739;SDS011;53653;52.188;8.602;2023-06-14T05:46:43;9.60;;;2.93;;
66739;SDS011;53653;52.188;8.602;2023-06-14T05:49:08;7.18;;;2.92;;
66739;SDS011;53653;52.188;8.602;2023-06-14T05:51:34;6.97;;;2.87;;
66739;SDS011;53653;52.188;8.602;2023-06-14T05:54:00;10.05;;;2.80;;
66739;SDS011;53653;52.188;8.602;2023-06-14T05:56:26;8.27;;;2.35;;
66739;SDS011;53653;52.188;8.602;2023-06-14T05:58:51;6.83;;;2.93;;
66739;SDS011;53653;52.188;8.602;2023-06-14T06:01:17;7.32;;;2.90;;
66739;SDS011;53653;52.188;8.602;2023-06-14T06:03:43;12.87;;;3.17;;
66739;SDS011;53653;52.188;8.602;2023-06-14T06:06:11;6.03;;;2.53;;
66739;SDS011;53653;52.188;8.602;2023-06-14T06:08:37;10.38;;;3.50;;
66739;SDS011;53653;52.188;8.602;2023-06-14T06:11:03;8.07;;;3.10;;
66739;SDS011;53653;52.188;8.602;2023-06-14T06:13:29;8.68;;;2.50;;
66739;SDS011;53653;52.188;8.602;2023-06-14T06:15:54;9.63;;;2.90;;
66739;SDS011;53653;52.188;8.602;2023-06-14T06:18:21;6.20;;;2.50;;
66739;SDS011;53653;52.188;8.602;2023-06-14T06:20:46;7.10;;;2.90;;
66739;SDS011;53653;52.188;8.602;2023-06-14T06:23:12;8.67;;;3.10;;
66739;SDS011;53653;52.188;8.602;2023-06-14T06:25:38;7.15;;;2.70;;
66739;SDS011;53653;52.188;8.602;2023-06-14T06:28:03;6.57;;;2.53;;
66739;SDS011;53653;52.188;8.602;2023-06-14T06:30:29;7.83;;;2.50;;
66739;SDS011;53653;52.188;8.602;2023-06-14T06:32:54;7.85;;;2.80;;
66739;SDS011;53653;52.188;8.602;2023-06-14T06:35:20;7.27;;;2.50;;
66739;SDS011;53653;52.188;8.602;2023-06-14T06:37:46;9.65;;;2.88;;
66739;SDS011;53653;52.188;8.602;2023-06-14T06:40:11;6.13;;;2.53;;
66739;SDS011;53653;52.188;8.602;2023-06-14T06:42:37;7.45;;;2.90;;
66739;SDS011;53653;52.188;8.602;2023-06-14T06:45:04;6.78;;;2.30;;
66739;SDS011;53653;52.188;8.602;2023-06-14T06:47:31;7.53;;;2.73;;
66739;SDS011;53653;52.188;8.602;2023-06-14T06:49:56;7.60;;;2.40;;
66739;SDS011;53653;52.188;8.602;2023-06-14T06:52:22;6.63;;;2.33;;
66739;SDS011;53653;52.188;8.602;2023-06-14T06:54:47;13.65;;;2.90;;
66739;SDS011;53653;52.188;8.602;2023-06-14T06:57:14;6.23;;;2.23;;
66739;SDS011;53653;52.188;8.602;2023-06-14T06:59:40;6.43;;;2.28;;
66739;SDS011;53653;52.188;8.602;2023-06-14T07:02:05;5.83;;;1.97;;
66739;SDS011;53653;52.188;8.602;2023-06-14T07:04:31;6.32;;;2.35;;
66739;SDS011;53653;52.188;8.602;2023-06-14T07:06:56;5.97;;;2.10;;
66739;SDS011;53653;52.188;8.602;2023-06-14T07:09:22;7.83;;;2.20;;
66739;SDS011;53653;52.188;8.602;2023-06-14T07:11:48;6.00;;;2.38;;
66739;SDS011;53653;52.188;8.602;2023-06-14T07:14:13;5.47;;;2.00;;
66739;SDS011;53653;52.188;8.602;2023-06-14T07:16:39;9.80;;;2.40;;
66739;SDS011;53653;52.188;8.602;2023-06-14T07:19:04;11.45;;;2.47;;
66739;SDS011;53653;52.188;8.602;2023-06-14T07:21:30;7.80;;;2.20;;
66739;SDS011;53653;52.188;8.602;2023-06-14T07:23:56;10.30;;;2.58;;
66739;SDS011;53653;52.188;8.602;2023-06-14T07:26:22;8.68;;;2.38;;
66739;SDS011;53653;52.188;8.602;2023-06-14T07:28:48;8.77;;;2.70;;
66739;SDS011;53653;52.188;8.602;2023-06-14T07:31:16;6.47;;;2.40;;
66739;SDS011;53653;52.188;8.602;2023-06-14T07:33:45;5.90;;;2.60;;
66739;SDS011;53653;52.188;8.602;2023-06-14T07:36:11;6.45;;;2.63;;
66739;SDS011;53653;52.188;8.602;2023-06-14T07:38:37;5.67;;;2.23;;
66739;SDS011;53653;52.188;8.602;2023-06-14T07:41:03;8.45;;;3.20;;
66739;SDS011;53653;52.188;8.602;2023-06-14T07:43:29;7.43;;;2.50;;
66739;SDS011;53653;52.188;8.602;2023-06-14T07:45:54;6.47;;;2.67;;
66739;SDS011;53653;52.188;8.602;2023-06-14T07:48:20;10.63;;;2.60;;
66739;SDS011;53653;52.188;8.602;2023-06-14T07:50:46;7.00;;;2.20;;
66739;SDS011;53653;52.188;8.602;2023-06-14T07:53:12;5.88;;;2.30;;
66739;SDS011;53653;52.188;8.602;2023-06-14T07:55:37;6.00;;;2.53;;
66739;SDS011;53653;52.188;8.602;2023-06-14T07:58:05;9.07;;;2.50;;
66739;SDS011;53653;52.188;8.602;2023-06-14T08:00:31;6.15;;;2.38;;
66739;SDS011;53653;52.188;8.602;2023-06-14T08:02:57;6.07;;;2.10;;
66739;SDS011;53653;52.188;8.602;2023-06-14T08:05:27;6.55;;;2.30;;
66739;SDS011;53653;52.188;8.602;2023-06-14T08:07:54;5.93;;;2.20;;
66739;SDS011;53653;52.188;8.602;2023-06-14T08:10:20;6.72;;;2.13;;
66739;SDS011;53653;52.188;8.602;2023-06-14T08:12:48;9.15;;;2.20;;
66739;SDS011;53653;52.188;8.602;2023-06-14T08:15:15;5.30;;;2.25;;
66739;SDS011;53653;52.188;8.602;2023-06-14T08:17:44;6.90;;;2.20;;
66739;SDS011;53653;52.188;8.602;2023-06-14T08:20:10;7.50;;;2.50;;
66739;SDS011;53653;52.188;8.602;2023-06-14T08:22:37;6.50;;;2.30;;
66739;SDS011;53653;52.188;8.602;2023-06-14T08:25:03;8.38;;;3.05;;
66739;SDS011;53653;52.188;8.602;2023-06-14T08:27:29;7.30;;;2.50;;
66739;SDS011;53653;52.188;8.602;2023-06-14T08:29:55;5.93;;;2.20;;
66739;SDS011;53653;52.188;8.602;2023-06-14T08:32:21;7.15;;;2.63;;
66739;SDS011;53653;52.188;8.602;2023-06-14T08:34:47;6.43;;;2.67;;
66739;SDS011;53653;52.188;8.602;2023-06-14T08:37:13;8.63;;;2.40;;
66739;SDS011;53653;52.188;8.602;2023-06-14T08:39:39;7.53;;;2.63;;
66739;SDS011;53653;52.188;8.602;2023-06-14T08:42:04;6.97;;;3.30;;
66739;SDS011;53653;52.188;8.602;2023-06-14T08:44:33;7.40;;;2.30;;
66739;SDS011;53653;52.188;8.602;2023-06-14T08:46:59;7.72;;;2.58;;
66739;SDS011;53653;52.188;8.602;2023-06-14T08:49:25;7.77;;;2.53;;
66739;SDS011;53653;52.188;8.602;2023-06-14T08:51:53;6.35;;;2.35;;
66739;SDS011;53653;52.188;8.602;2023-06-14T08:54:23;7.70;;;2.78;;
66739;SDS011;53653;52.188;8.602;2023-06-14T08:56:53;7.15;;;3.00;;
66739;SDS011;53653;52.188;8.602;2023-06-14T08:59:23;9.35;;;2.30;;
66739;SDS011;53653;52.188;8.602;2023-06-14T09:01:52;5.90;;;2.10;;
66739;SDS011;53653;52.188;8.602;2023-06-14T09:04:20;7.80;;;2.20;;
66739;SDS011;53653;52.188;8.602;2023-06-14T09:06:47;5.60;;;1.98;;
66739;SDS011;53653;52.188;8.602;2023-06-14T09:09:20;6.65;;;2.45;;
66739;SDS011;53653;52.188;8.602;2023-06-14T09:11:49;7.03;;;2.50;;
66739;SDS011;53653;52.188;8.602;2023-06-14T09:14:15;8.50;;;2.30;;
66739;SDS011;53653;52.188;8.602;2023-06-14T09:16:41;6.60;;;2.20;;
66739;SDS011;53653;52.188;8.602;2023-06-14T09:19:07;6.65;;;2.13;;
66739;SDS011;53653;52.188;8.602;2023-06-14T09:21:35;8.10;;;2.30;;
66739;SDS011;53653;52.188;8.602;2023-06-14T09:24:05;6.90;;;2.78;;
66739;SDS011;53653;52.188;8.602;2023-06-14T09:26:31;6.43;;;2.50;;
66739;SDS011;53653;52.188;8.602;2023-06-14T09:28:56;5.35;;;2.03;;
66739;SDS011;53653;52.188;8.602;2023-06-14T09:31:22;8.60;;;2.60;;
66739;SDS011;53653;52.188;8.602;2023-06-14T09:33:49;6.95;;;2.10;;
66739;SDS011;53653;52.188;8.602;2023-06-14T09:36:20;5.15;;;2.00;;
66739;SDS011;53653;52.188;8.602;2023-06-14T09:38:56;5.43;;;2.10;;
66739;SDS011;53653;52.188;8.602;2023-06-14T09:41:33;6.40;;;2.03;;
66739;SDS011;53653;52.188;8.602;2023-06-14T09:44:04;6.45;;;2.05;;
66739;SDS011;53653;52.188;8.602;2023-06-14T09:46:32;5.13;;;2.22;;
66739;SDS011;53653;52.188;8.602;2023-06-14T09:48:58;5.38;;;2.10;;
66739;SDS011;53653;52.188;8.602;2023-06-14T09:51:24;6.50;;;2.03;;
66739;SDS011;53653;52.188;8.602;2023-06-14T09:53:51;6.80;;;2.35;;
66739;SDS011;53653;52.188;8.602;2023-06-14T09:56:27;8.73;;;2.30;;
66739;SDS011;53653;52.188;8.602;2023-06-14T09:58:55;5.95;;;2.08;;
66739;SDS011;53653;52.188;8.602;2023-06-14T10:01:26;7.05;;;2.63;;
66739;SDS011;53653;52.188;8.602;2023-06-14T10:03:55;7.80;;;2.50;;
66739;SDS011;53653;52.188;8.602;2023-06-14T10:06:26;6.43;;;2.25;;
66739;SDS011;53653;52.188;8.602;2023-06-14T10:08:55;7.95;;;2.50;;
66739;SDS011;53653;52.188;8.602;2023-06-14T10:11:23;7.10;;;2.50;;
66739;SDS011;53653;52.188;8.602;2023-06-14T10:13:50;5.22;;;2.35;;
66739;SDS011;53653;52.188;8.602;2023-06-14T10:18:53;7.13;;;2.65;;
66739;SDS011;53653;52.188;8.602;2023-06-14T10:21:28;8.48;;;2.80;;
66739;SDS011;53653;52.188;8.602;2023-06-14T10:24:05;7.60;;;2.35;;
66739;SDS011;53653;52.188;8.602;2023-06-14T10:26:32;7.55;;;2.50;;
66739;SDS011;53653;52.188;8.602;2023-06-14T10:28:59;5.90;;;2.60;;
66739;SDS011;53653;52.188;8.602;2023-06-14T10:31:39;6.07;;;2.60;;
66739;SDS011;53653;52.188;8.602;2023-06-14T10:34:22;9.15;;;2.30;;
66739;SDS011;53653;52.188;8.602;2023-06-14T10:36:59;6.15;;;2.40;;
66739;SDS011;53653;52.188;8.602;2023-06-14T10:39:28;6.70;;;2.33;;
66739;SDS011;53653;52.188;8.602;2023-06-14T10:41:54;6.35;;;2.30;;
66739;SDS011;53653;52.188;8.602;2023-06-14T10:46:47;7.23;;;2.47;;
66739;SDS011;53653;52.188;8.602;2023-06-14T10:49:15;7.15;;;2.83;;
66739;SDS011;53653;52.188;8.602;2023-06-14T10:51:51;6.68;;;2.40;;
66739;SDS011;53653;52.188;8.602;2023-06-14T10:54:21;6.65;;;2.40;;
66739;SDS011;53653;52.188;8.602;2023-06-14T10:56:48;7.87;;;2.27;;
66739;SDS011;53653;52.188;8.602;2023-06-14T10:59:15;5.28;;;2.38;;
66739;SDS011;53653;52.188;8.602;2023-06-14T11:04:26;5.32;;;2.20;;
66739;SDS011;53653;52.188;8.602;2023-06-14T11:07:37;7.32;;;2.50;;
66739;SDS011;53653;52.188;8.602;2023-06-14T11:12:55;6.20;;;2.40;;
66739;SDS011;53653;52.188;8.602;2023-06-14T11:15:27;6.13;;;2.42;;
66739;SDS011;53653;52.188;8.602;2023-06-14T11:17:56;7.20;;;2.30;;
66739;SDS011;53653;52.188;8.602;2023-06-14T11:20:26;7.47;;;2.27;;
66739;SDS011;53653;52.188;8.602;2023-06-14T11:22:53;6.53;;;2.30;;
66739;SDS011;53653;52.188;8.602;2023-06-14T11:25:19;7.47;;;2.42;;
66739;SDS011;53653;52.188;8.602;2023-06-14T11:27:44;6.85;;;2.75;;
66739;SDS011;53653;52.188;8.602;2023-06-14T11:30:10;15.97;;;2.77;;
66739;SDS011;53653;52.188;8.602;2023-06-14T11:32:37;6.55;;;2.28;;
66739;SDS011;53653;52.188;8.602;2023-06-14T11:35:03;8.35;;;2.50;;
66739;SDS011;53653;52.188;8.602;2023-06-14T11:37:30;8.63;;;2.65;;
66739;SDS011;53653;52.188;8.602;2023-06-14T11:39:56;6.23;;;2.27;;
66739;SDS011;53653;52.188;8.602;2023-06-14T11:42:22;5.18;;;1.83;;
66739;SDS011;53653;52.188;8.602;2023-06-14T11:44:49;7.03;;;2.17;;
66739;SDS011;53653;52.188;8.602;2023-06-14T11:47:15;5.10;;;2.40;;
66739;SDS011;53653;52.188;8.602;2023-06-14T11:49:41;5.60;;;2.40;;
66739;SDS011;53653;52.188;8.602;2023-06-14T11:52:07;7.13;;;2.45;;
66739;SDS011;53653;52.188;8.602;2023-06-14T11:54:33;6.27;;;2.10;;
66739;SDS011;53653;52.188;8.602;2023-06-14T11:56:58;5.18;;;2.00;;
66739;SDS011;53653;52.188;8.602;2023-06-14T11:59:24;5.72;;;2.30;;
66739;SDS011;53653;52.188;8.602;2023-06-14T12:01:50;6.63;;;2.33;;
66739;SDS011;53653;52.188;8.602;2023-06-14T12:04:28;5.90;;;2.42;;
66739;SDS011;53653;52.188;8.602;2023-06-14T12:06:54;6.07;;;2.08;;
66739;SDS011;53653;52.188;8.602;2023-06-14T12:09:21;6.72;;;2.25;;
66739;SDS011;53653;52.188;8.602;2023-06-14T12:11:48;5.43;;;2.10;;
66739;SDS011;53653;52.188;8.602;2023-06-14T12:14:14;5.43;;;2.00;;
66739;SDS011;53653;52.188;8.602;2023-06-14T12:16:40;5.25;;;2.40;;
66739;SDS011;53653;52.188;8.602;2023-06-14T12:19:16;10.90;;;4.15;;
66739;SDS011;53653;52.188;8.602;2023-06-14T12:21:43;5.53;;;2.10;;
66739;SDS011;53653;52.188;8.602;2023-06-14T12:24:13;6.97;;;2.20;;
66739;SDS011;53653;52.188;8.602;2023-06-14T12:26:39;6.78;;;2.42;;
66739;SDS011;53653;52.188;8.602;2023-06-14T12:29:07;5.72;;;2.15;;
66739;SDS011;53653;52.188;8.602;2023-06-14T12:31:33;6.95;;;1.98;;
66739;SDS011;53653;52.188;8.602;2023-06-14T12:33:59;5.63;;;2.00;;
66739;SDS011;53653;52.188;8.602;2023-06-14T12:36:25;9.88;;;2.95;;
66739;SDS011;53653;52.188;8.602;2023-06-14T12:38:51;7.25;;;2.30;;
66739;SDS011;53653;52.188;8.602;2023-06-14T12:41:20;6.70;;;2.13;;
66739;SDS011;53653;52.188;8.602;2023-06-14T12:43:47;7.13;;;2.45;;
66739;SDS011;53653;52.188;8.602;2023-06-14T12:46:13;6.07;;;1.98;;
66739;SDS011;53653;52.188;8.602;2023-06-14T12:48:39;7.47;;;2.30;;
66739;SDS011;53653;52.188;8.602;2023-06-14T12:51:04;8.10;;;2.40;;
66739;SDS011;53653;52.188;8.602;2023-06-14T12:53:30;8.23;;;3.87;;
66739;SDS011;53653;52.188;8.602;2023-06-14T12:55:55;12.73;;;3.40;;
66739;SDS011;53653;52.188;8.602;2023-06-14T12:58:21;6.60;;;2.50;;
66739;SDS011;53653;52.188;8.602;2023-06-14T13:00:49;7.35;;;2.30;;
66739;SDS011;53653;52.188;8.602;2023-06-14T13:03:14;9.00;;;2.53;;
66739;SDS011;53653;52.188;8.602;2023-06-14T13:05:40;13.93;;;3.00;;
66739;SDS011;53653;52.188;8.602;2023-06-14T13:08:07;6.70;;;2.70;;
66739;SDS011;53653;52.188;8.602;2023-06-14T13:10:33;6.03;;;2.50;;
66739;SDS011;53653;52.188;8.602;2023-06-14T13:12:59;9.80;;;2.83;;
66739;SDS011;53653;52.188;8.602;2023-06-14T13:15:25;9.40;;;3.50;;
66739;SDS011;53653;52.188;8.602;2023-06-14T13:17:52;6.65;;;2.65;;
66739;SDS011;53653;52.188;8.602;2023-06-14T13:20:17;7.00;;;2.70;;
66739;SDS011;53653;52.188;8.602;2023-06-14T13:22:43;7.03;;;2.47;;
66739;SDS011;53653;52.188;8.602;2023-06-14T13:25:09;6.30;;;2.70;;
66739;SDS011;53653;52.188;8.602;2023-06-14T13:27:35;5.88;;;2.50;;
66739;SDS011;53653;52.188;8.602;2023-06-14T13:30:00;6.43;;;2.70;;
66739;SDS011;53653;52.188;8.602;2023-06-14T13:32:26;6.60;;;2.95;;
66739;SDS011;53653;52.188;8.602;2023-06-14T13:34:51;6.87;;;2.87;;
66739;SDS011;53653;52.188;8.602;2023-06-14T13:37:17;7.38;;;2.90;;
66739;SDS011;53653;52.188;8.602;2023-06-14T13:39:43;7.80;;;2.97;;
66739;SDS011;53653;52.188;8.602;2023-06-14T13:42:08;6.00;;;2.90;;
66739;SDS011;53653;52.188;8.602;2023-06-14T13:44:34;9.98;;;2.40;;
66739;SDS011;53653;52.188;8.602;2023-06-14T13:46:59;6.07;;;2.90;;
66739;SDS011;53653;52.188;8.602;2023-06-14T13:49:25;6.03;;;2.80;;
66739;SDS011;53653;52.188;8.602;2023-06-14T13:51:51;6.20;;;2.47;;
66739;SDS011;53653;52.188;8.602;2023-06-14T13:54:18;8.27;;;2.73;;
66739;SDS011;53653;52.188;8.602;2023-06-14T13:56:45;8.43;;;3.22;;
66739;SDS011;53653;52.188;8.602;2023-06-14T13:59:11;7.35;;;3.40;;
66739;SDS011;53653;52.188;8.602;2023-06-14T14:01:37;7.20;;;2.95;;
66739;SDS011;53653;52.188;8.602;2023-06-14T14:04:02;6.70;;;3.17;;
66739;SDS011;53653;52.188;8.602;2023-06-14T14:06:28;6.47;;;3.08;;
66739;SDS011;53653;52.188;8.602;2023-06-14T14:08:54;5.47;;;2.80;;
66739;SDS011;53653;52.188;8.602;2023-06-14T14:11:19;7.13;;;2.93;;
66739;SDS011;53653;52.188;8.602;2023-06-14T14:13:45;8.02;;;3.30;;
66739;SDS011;53653;52.188;8.602;2023-06-14T14:16:12;13.23;;;3.55;;
66739;SDS011;53653;52.188;8.602;2023-06-14T14:18:38;8.82;;;3.20;;
66739;SDS011;53653;52.188;8.602;2023-06-14T14:21:04;7.83;;;3.40;;
66739;SDS011;53653;52.188;8.602;2023-06-14T14:23:29;10.60;;;3.72;;
66739;SDS011;53653;52.188;8.602;2023-06-14T14:25:55;8.23;;;3.37;;
66739;SDS011;53653;52.188;8.602;2023-06-14T14:28:21;9.52;;;3.55;;
66739;SDS011;53653;52.188;8.602;2023-06-14T14:30:47;8.43;;;3.70;;
66739;SDS011;53653;52.188;8.602;2023-06-14T14:33:13;6.95;;;3.28;;
66739;SDS011;53653;52.188;8.602;2023-06-14T14:35:44;7.10;;;3.20;;
66739;SDS011;53653;52.188;8.602;2023-06-14T14:38:16;5.87;;;3.30;;
66739;SDS011;53653;52.188;8.602;2023-06-14T14:40:42;6.78;;;3.70;;
66739;SDS011;53653;52.188;8.602;2023-06-14T14:43:08;8.57;;;3.90;;
66739;SDS011;53653;52.188;8.602;2023-06-14T14:45:34;7.30;;;3.80;;
66739;SDS011;53653;52.188;8.602;2023-06-14T14:48:00;7.90;;;3.53;;
66739;SDS011;53653;52.188;8.602;2023-06-14T14:50:26;7.05;;;3.47;;
66739;SDS011;53653;52.188;8.602;2023-06-14T14:52:51;14.23;;;3.53;;
66739;SDS011;53653;52.188;8.602;2023-06-14T14:55:17;8.00;;;3.38;;
66739;SDS011;53653;52.188;8.602;2023-06-14T14:57:43;6.37;;;3.03;;
66739;SDS011;53653;52.188;8.602;2023-06-14T15:00:09;7.00;;;3.20;;